sensor_id;sensor_type;location;lat;lon;timestamp;pressure;altitude;pressure_sealevel;temperature;humidity
31183;BME280;17813;0.000;0.000;2024-01-15T00:00:34;75926.03;;;-142.58;74.75
31183;BME280;17813;0.000;0.000;2024-01-15T00:03:16;75936.19;;;-142.58;74.72
31183;BME280;17813;0.000;0.000;2024-01-15T00:05:44;75934.16;;;-142.58;74.37
31183;BME280;17813;0.000;0.000;2024-01-15T00:08:11;75930.09;;;-142.58;74.92
31183;BME280;17813;0.000;0.000;2024-01-15T00:10:43;75932.13;;;-142.58;74.55
31183;BME280;17813;0.000;0.000;2024-01-15T00:13:13;75924.00;;;-142.58;74.97
31183;BME280;17813;0.000;0.000;2024-01-15T00:15:39;75909.75;;;-142.58;74.56
31183;BME280;17813;0.000;0.000;2024-01-15T00:18:07;75903.66;;;-142.58;74.09
31183;BME280;17813;0.000;0.000;2024-01-15T00:20:35;75917.88;;;-142.58;73.15
31183;BME280;17813;0.000;0.000;2024-01-15T00:23:02;75907.72;;;-142.58;73.43
31183;BME280;17813;0.000;0.000;2024-01-15T00:25:31;75905.69;;;-142.58;74.19
31183;BME280;17813;0.000;0.000;2024-01-15T00:27:59;75907.72;;;-142.58;73.25
31183;BME280;17813;0.000;0.000;2024-01-15T00:30:29;75899.56;;;-142.58;74.55
31183;BME280;17813;0.000;0.000;2024-01-15T00:32:56;75891.44;;;-142.58;73.39
31183;BME280;17813;0.000;0.000;2024-01-15T00:35:41;75885.34;;;-142.58;73.53
31183;BME280;17813;0.000;0.000;2024-01-15T00:38:09;75899.56;;;-142.58;73.32
31183;BME280;17813;0.000;0.000;2024-01-15T00:40:36;75909.75;;;-142.58;73.94
31183;BME280;17813;0.000;0.000;2024-01-15T00:43:20;97717.25;;;-142.58;72.23
31183;BME280;17813;0.000;0.000;2024-01-15T00:45:49;75891.44;;;-142.58;72.23
31183;BME280;17813;0.000;0.000;2024-01-15T00:48:16;75881.28;;;-142.58;72.83
31183;BME280;17813;0.000;0.000;2024-01-15T00:50:43;75881.28;;;-142.58;72.51
31183;BME280;17813;0.000;0.000;2024-01-15T00:53:10;75875.16;;;-142.58;72.90
31183;BME280;17813;0.000;0.000;2024-01-15T00:55:37;75875.16;;;-142.58;73.07
31183;BME280;17813;0.000;0.000;2024-01-15T00:58:07;75883.31;;;-142.58;72.63
31183;BME280;17813;0.000;0.000;2024-01-15T01:00:34;97712.53;;;-142.58;72.13
31183;BME280;17813;0.000;0.000;2024-01-15T01:03:02;75887.38;;;-142.58;72.20
31183;BME280;17813;0.000;0.000;2024-01-15T01:05:31;75881.28;;;-142.58;72.26
31183;BME280;17813;0.000;0.000;2024-01-15T01:08:04;75875.16;;;-142.58;72.93
31183;BME280;17813;0.000;0.000;2024-01-15T01:10:34;75875.16;;;-142.58;72.75
31183;BME280;17813;0.000;0.000;2024-01-15T01:13:02;75883.31;;;-142.58;72.83
31183;BME280;17813;0.000;0.000;2024-01-15T01:15:29;75891.44;;;-142.58;72.92
31183;BME280;17813;0.000;0.000;2024-01-15T01:17:56;75893.47;;;-142.58;72.58
31183;BME280;17813;0.000;0.000;2024-01-15T01:20:23;75899.56;;;-142.58;72.77
31183;BME280;17813;0.000;0.000;2024-01-15T01:22:50;75899.56;;;-142.58;72.27
31183;BME280;17813;0.000;0.000;2024-01-15T01:25:35;75905.69;;;-142.58;72.84
31183;BME280;17813;0.000;0.000;2024-01-15T01:28:02;75899.56;;;-142.58;72.57
31183;BME280;17813;0.000;0.000;2024-01-15T01:30:30;75905.69;;;-142.58;72.05
31183;BME280;17813;0.000;0.000;2024-01-15T01:32:56;75905.69;;;-142.58;72.39
31183;BME280;17813;0.000;0.000;2024-01-15T01:35:23;75901.63;;;-142.58;71.71
31183;BME280;17813;0.000;0.000;2024-01-15T01:37:53;75895.50;;;-142.58;71.82
31183;BME280;17813;0.000;0.000;2024-01-15T01:40:21;75903.66;;;-142.58;72.76
31183;BME280;17813;0.000;0.000;2024-01-15T01:42:48;75897.53;;;-142.58;72.27
31183;BME280;17813;0.000;0.000;2024-01-15T01:45:16;75891.44;;;-142.58;71.40
31183;BME280;17813;0.000;0.000;2024-01-15T01:47:43;75887.38;;;-142.58;71.94
31183;BME280;17813;0.000;0.000;2024-01-15T01:50:10;75885.34;;;-142.58;72.54
31183;BME280;17813;0.000;0.000;2024-01-15T01:52:39;75891.44;;;-142.58;72.16
31183;BME280;17813;0.000;0.000;2024-01-15T01:55:20;75895.50;;;-142.58;71.22
31183;BME280;17813;0.000;0.000;2024-01-15T01:58:08;75891.44;;;-142.58;72.50
31183;BME280;17813;0.000;0.000;2024-01-15T02:00:35;75907.72;;;-142.58;71.46
31183;BME280;17813;0.000;0.000;2024-01-15T02:03:03;75899.56;;;-142.58;72.12
31183;BME280;17813;0.000;0.000;2024-01-15T02:05:31;75907.72;;;-142.58;70.91
31183;BME280;17813;0.000;0.000;2024-01-15T02:08:01;75903.66;;;-142.58;70.71
31183;BME280;17813;0.000;0.000;2024-01-15T02:10:28;75488.84;;;-142.58;70.99
31183;BME280;17813;0.000;0.000;2024-01-15T02:12:55;75928.06;;;-142.58;72.02
31183;BME280;17813;0.000;0.000;2024-01-15T02:15:26;75905.69;;;-142.58;71.56
31183;BME280;17813;0.000;0.000;2024-01-15T02:18:06;75917.88;;;-142.58;71.26
31183;BME280;17813;0.000;0.000;2024-01-15T02:20:36;75936.19;;;-142.58;71.27
31183;BME280;17813;0.000;0.000;2024-01-15T02:23:08;75921.94;;;-142.58;71.40
31183;BME280;17813;0.000;0.000;2024-01-15T02:25:41;75938.22;;;-142.58;70.80
31183;BME280;17813;0.000;0.000;2024-01-15T02:28:10;75952.47;;;-142.58;71.02
31183;BME280;17813;0.000;0.000;2024-01-15T02:30:38;75942.28;;;-142.58;71.67
31183;BME280;17813;0.000;0.000;2024-01-15T02:33:10;75932.13;;;-142.58;71.92
31183;BME280;17813;0.000;0.000;2024-01-15T02:35:37;75958.56;;;-142.58;70.82
31183;BME280;17813;0.000;0.000;2024-01-15T02:38:08;75952.47;;;-142.58;70.92
31183;BME280;17813;0.000;0.000;2024-01-15T02:40:36;75962.63;;;-142.58;70.75
31183;BME280;17813;0.000;0.000;2024-01-15T02:43:03;75940.25;;;-142.58;71.13
31183;BME280;17813;0.000;0.000;2024-01-15T02:45:37;75942.41;;;-142.58;71.19
31183;BME280;17813;0.000;0.000;2024-01-15T02:48:04;75940.25;;;-142.58;72.24
31183;BME280;17813;0.000;0.000;2024-01-15T02:50:34;75948.41;;;-142.58;71.98
31183;BME280;17813;0.000;0.000;2024-01-15T02:56:49;75991.25;;;-142.58;71.43
31183;BME280;17813;0.000;0.000;2024-01-15T02:59:17;75989.06;;;-142.58;72.47
31183;BME280;17813;0.000;0.000;2024-01-15T03:01:44;75968.75;;;-142.58;71.96
31183;BME280;17813;0.000;0.000;2024-01-15T03:04:12;75964.66;;;-142.58;71.71
31183;BME280;17813;0.000;0.000;2024-01-15T03:06:52;75958.56;;;-142.58;71.16
31183;BME280;17813;0.000;0.000;2024-01-15T03:09:22;75964.66;;;-142.58;71.91
31183;BME280;17813;0.000;0.000;2024-01-15T03:11:49;75952.47;;;-142.58;71.67
31183;BME280;17813;0.000;0.000;2024-01-15T03:14:16;75962.63;;;-142.58;71.51
31183;BME280;17813;0.000;0.000;2024-01-15T03:16:44;75942.41;;;-142.58;71.25
31183;BME280;17813;0.000;0.000;2024-01-15T03:19:14;75958.56;;;-142.58;71.62
31183;BME280;17813;0.000;0.000;2024-01-15T03:21:44;75952.47;;;-142.58;71.41
31183;BME280;17813;0.000;0.000;2024-01-15T03:24:11;75936.19;;;-142.58;71.36
31183;BME280;17813;0.000;0.000;2024-01-15T03:26:38;75948.41;;;-142.58;71.83
31183;BME280;17813;0.000;0.000;2024-01-15T03:29:05;75950.44;;;-142.58;71.69
31183;BME280;17813;0.000;0.000;2024-01-15T03:31:35;75952.47;;;-142.58;71.15
31183;BME280;17813;0.000;0.000;2024-01-15T03:34:02;75956.53;;;-142.58;70.49
31183;BME280;17813;0.000;0.000;2024-01-15T03:36:30;75966.69;;;-142.58;71.39
31183;BME280;17813;0.000;0.000;2024-01-15T03:38:57;75960.59;;;-142.58;70.15
31183;BME280;17813;0.000;0.000;2024-01-15T03:41:26;75958.56;;;-142.58;70.15
31183;BME280;17813;0.000;0.000;2024-01-15T03:43:53;75946.38;;;-142.58;70.92
31183;BME280;17813;0.000;0.000;2024-01-15T03:46:23;75934.16;;;-142.58;71.39
31183;BME280;17813;0.000;0.000;2024-01-15T03:48:50;75960.59;;;-142.58;70.97
31183;BME280;17813;0.000;0.000;2024-01-15T03:51:18;75940.25;;;-142.58;70.38
31183;BME280;17813;0.000;0.000;2024-01-15T03:53:49;75956.53;;;-142.58;71.27
31183;BME280;17813;0.000;0.000;2024-01-15T03:56:15;75972.81;;;-142.58;71.23
31183;BME280;17813;0.000;0.000;2024-01-15T03:58:43;75972.81;;;-142.58;71.15
31183;BME280;17813;0.000;0.000;2024-01-15T04:01:10;75978.91;;;-142.58;71.11
31183;BME280;17813;0.000;0.000;2024-01-15T04:03:38;76003.31;;;-142.58;71.83
31183;BME280;17813;0.000;0.000;2024-01-15T04:06:05;75999.38;;;-142.58;71.30
31183;BME280;17813;0.000;0.000;2024-01-15T04:08:33;75991.13;;;-142.58;71.74
31183;BME280;17813;0.000;0.000;2024-01-15T04:11:00;75978.91;;;-142.58;71.67
31183;BME280;17813;0.000;0.000;2024-01-15T04:13:28;75982.97;;;-142.58;71.91
31183;BME280;17813;0.000;0.000;2024-01-15T04:15:55;75974.97;;;-142.58;71.82
31183;BME280;17813;0.000;0.000;2024-01-15T04:18:22;75980.94;;;-142.58;71.39
31183;BME280;17813;0.000;0.000;2024-01-15T04:20:59;75985.00;;;-142.58;72.63
31183;BME280;17813;0.000;0.000;2024-01-15T04:23:26;75999.38;;;-142.58;72.04
31183;BME280;17813;0.000;0.000;2024-01-15T04:25:53;75999.25;;;-142.58;71.54
31183;BME280;17813;0.000;0.000;2024-01-15T04:28:19;76019.59;;;-142.58;72.46
31183;BME280;17813;0.000;0.000;2024-01-15T04:30:47;76017.56;;;-142.58;72.36
31183;BME280;17813;0.000;0.000;2024-01-15T04:33:14;76015.53;;;-142.58;72.20
31183;BME280;17813;0.000;0.000;2024-01-15T04:35:42;76025.69;;;-142.58;72.99
31183;BME280;17813;0.000;0.000;2024-01-15T04:38:09;76017.56;;;-142.58;71.99
31183;BME280;17813;0.000;0.000;2024-01-15T04:40:36;76029.75;;;-142.58;72.65
31183;BME280;17813;0.000;0.000;2024-01-15T04:43:03;76017.56;;;-142.58;72.70
31183;BME280;17813;0.000;0.000;2024-01-15T04:45:34;38585.47;;;-142.58;72.01
31183;BME280;17813;0.000;0.000;2024-01-15T04:48:17;76033.81;;;-142.58;71.63
31183;BME280;17813;0.000;0.000;2024-01-15T04:50:45;76017.56;;;-142.58;71.14
31183;BME280;17813;0.000;0.000;2024-01-15T04:53:13;76005.47;;;-142.58;71.55
31183;BME280;17813;0.000;0.000;2024-01-15T04:55:41;75832.06;;;-142.58;72.27
31183;BME280;17813;0.000;0.000;2024-01-15T04:58:08;75999.38;;;-142.58;71.42
31183;BME280;17813;0.000;0.000;2024-01-15T05:00:36;76003.31;;;-142.58;71.08
31183;BME280;17813;0.000;0.000;2024-01-15T05:03:05;75989.06;;;-142.58;71.42
31183;BME280;17813;0.000;0.000;2024-01-15T05:05:33;75989.06;;;-142.58;71.36
31183;BME280;17813;0.000;0.000;2024-01-15T05:08:00;75991.13;;;-142.58;70.95
31183;BME280;17813;0.000;0.000;2024-01-15T05:10:45;75982.97;;;-142.58;70.61
31183;BME280;17813;0.000;0.000;2024-01-15T05:13:12;75972.81;;;-142.58;70.29
31183;BME280;17813;0.000;0.000;2024-01-15T05:15:40;75972.81;;;-142.58;70.43
31183;BME280;17813;0.000;0.000;2024-01-15T05:18:07;75972.81;;;-142.58;70.59
31183;BME280;17813;0.000;0.000;2024-01-15T05:20:35;75970.78;;;-142.58;70.43
31183;BME280;17813;0.000;0.000;2024-01-15T05:23:02;75987.03;;;-142.58;70.23
31183;BME280;17813;0.000;0.000;2024-01-15T05:25:33;75974.97;;;-142.58;70.06
31183;BME280;17813;0.000;0.000;2024-01-15T05:28:04;75980.94;;;-142.58;69.86
31183;BME280;17813;0.000;0.000;2024-01-15T05:30:32;97683.78;;;-142.58;70.10
31183;BME280;17813;0.000;0.000;2024-01-15T05:33:25;76003.44;;;-142.58;70.09
31183;BME280;17813;0.000;0.000;2024-01-15T05:35:59;97679.09;;;-142.58;70.28
31183;BME280;17813;0.000;0.000;2024-01-15T05:38:46;76007.50;;;-142.58;70.29
31183;BME280;17813;0.000;0.000;2024-01-15T05:41:15;76003.31;;;-142.58;70.64
31183;BME280;17813;0.000;0.000;2024-01-15T05:44:02;75991.25;;;-142.58;70.98
31183;BME280;17813;0.000;0.000;2024-01-15T05:46:32;97678.09;;;-142.58;70.61
31183;BME280;17813;0.000;0.000;2024-01-15T05:48:59;75991.25;;;-142.58;70.63
31183;BME280;17813;0.000;0.000;2024-01-15T05:51:27;75985.00;;;-142.58;70.45
31183;BME280;17813;0.000;0.000;2024-01-15T05:54:00;75978.91;;;-142.58;70.51
31183;BME280;17813;0.000;0.000;2024-01-15T05:56:36;75985.00;;;-142.58;70.41
31183;BME280;17813;0.000;0.000;2024-01-15T05:59:05;76011.44;;;-142.58;70.59
31183;BME280;17813;0.000;0.000;2024-01-15T06:01:32;76009.53;;;-143.88;81.24
31183;BME280;17813;0.000;0.000;2024-01-15T06:03:59;76068.41;;;-142.58;71.20
31183;BME280;17813;0.000;0.000;2024-01-15T06:06:27;76025.69;;;-142.58;70.63
31183;BME280;17813;0.000;0.000;2024-01-15T06:09:15;76017.56;;;-142.58;71.13
31183;BME280;17813;0.000;0.000;2024-01-15T06:11:54;76023.66;;;-142.58;71.21
31183;BME280;17813;0.000;0.000;2024-01-15T06:14:22;76005.47;;;-142.58;70.46
31183;BME280;17813;0.000;0.000;2024-01-15T06:17:01;76003.31;;;-142.58;70.89
31183;BME280;17813;0.000;0.000;2024-01-15T06:19:30;75991.25;;;-142.58;71.62
31183;BME280;17813;0.000;0.000;2024-01-15T06:22:01;75987.03;;;-142.58;70.32
31183;BME280;17813;0.000;0.000;2024-01-15T06:24:46;75999.25;;;-142.58;70.65
31183;BME280;17813;0.000;0.000;2024-01-15T06:27:22;75982.97;;;-142.58;70.89
31183;BME280;17813;0.000;0.000;2024-01-15T06:29:56;97649.25;;;-142.58;70.99
31183;BME280;17813;0.000;0.000;2024-01-15T06:32:42;75985.00;;;-142.58;71.00
31183;BME280;17813;0.000;0.000;2024-01-15T06:35:11;75982.97;;;-142.58;71.00
31183;BME280;17813;0.000;0.000;2024-01-15T06:37:43;75978.91;;;-142.58;70.30
31183;BME280;17813;0.000;0.000;2024-01-15T06:40:11;75970.78;;;-142.58;70.91
31183;BME280;17813;0.000;0.000;2024-01-15T06:42:56;75966.69;;;-142.58;71.01
31183;BME280;17813;0.000;0.000;2024-01-15T06:45:42;75962.63;;;-142.58;0.00
31183;BME280;17813;0.000;0.000;2024-01-15T06:48:32;75962.63;;;-142.58;69.99
31183;BME280;17813;0.000;0.000;2024-01-15T06:51:24;75991.13;;;-142.58;70.04
31183;BME280;17813;0.000;0.000;2024-01-15T06:54:08;75982.97;;;-142.58;70.23
31183;BME280;17813;0.000;0.000;2024-01-15T06:56:56;75974.97;;;-142.58;70.54
31183;BME280;17813;0.000;0.000;2024-01-15T06:59:41;75980.94;;;-142.58;69.90
31183;BME280;17813;0.000;0.000;2024-01-15T07:02:09;75982.97;;;-142.58;69.61
31183;BME280;17813;0.000;0.000;2024-01-15T07:04:37;75999.38;;;-142.58;69.63
31183;BME280;17813;0.000;0.000;2024-01-15T07:07:04;75999.25;;;-142.58;70.22
31183;BME280;17813;0.000;0.000;2024-01-15T07:09:43;75999.25;;;-142.58;69.64
31183;BME280;17813;0.000;0.000;2024-01-15T07:12:13;76005.47;;;-142.58;70.46
31183;BME280;17813;0.000;0.000;2024-01-15T07:14:44;76003.44;;;-142.58;70.13
31183;BME280;17813;0.000;0.000;2024-01-15T07:17:12;75995.19;;;-142.58;69.67
31183;BME280;17813;0.000;0.000;2024-01-15T07:19:48;76019.59;;;-142.58;69.57
31183;BME280;17813;0.000;0.000;2024-01-15T07:22:24;76013.50;;;-142.58;70.25
31183;BME280;17813;0.000;0.000;2024-01-15T07:24:51;76003.44;;;-142.58;69.72
31183;BME280;17813;0.000;0.000;2024-01-15T07:27:21;75991.13;;;-142.58;69.42
31183;BME280;17813;0.000;0.000;2024-01-15T07:29:51;75999.25;;;-142.58;68.77
31183;BME280;17813;0.000;0.000;2024-01-15T07:32:22;75987.03;;;-142.58;69.00
31183;BME280;17813;0.000;0.000;2024-01-15T07:34:55;75980.94;;;-142.58;69.13
31183;BME280;17813;0.000;0.000;2024-01-15T07:37:24;75987.03;;;-142.58;69.47
31183;BME280;17813;0.000;0.000;2024-01-15T07:39:56;75991.13;;;-142.58;68.91
31183;BME280;17813;0.000;0.000;2024-01-15T07:42:25;75974.84;;;-142.58;68.36
31183;BME280;17813;0.000;0.000;2024-01-15T07:44:53;75966.69;;;-142.58;67.95
31183;BME280;17813;0.000;0.000;2024-01-15T07:47:25;75956.53;;;-142.58;68.40
31183;BME280;17813;0.000;0.000;2024-01-15T07:49:53;75956.53;;;-142.58;68.42
31183;BME280;17813;0.000;0.000;2024-01-15T07:52:39;75942.28;;;-142.58;68.02
31183;BME280;17813;0.000;0.000;2024-01-15T07:55:27;75942.28;;;-142.58;67.96
31183;BME280;17813;0.000;0.000;2024-01-15T07:58:09;142797.09;;;-142.58;67.60
31183;BME280;17813;0.000;0.000;2024-01-15T08:00:40;75934.16;;;-142.58;67.61
31183;BME280;17813;0.000;0.000;2024-01-15T08:03:18;75932.13;;;-142.58;67.97
31183;BME280;17813;0.000;0.000;2024-01-15T08:05:47;75919.91;;;-142.58;68.07
31183;BME280;17813;0.000;0.000;2024-01-15T08:08:17;75915.84;;;-142.58;68.01
31183;BME280;17813;0.000;0.000;2024-01-15T08:10:52;75924.00;;;-142.58;66.13
31183;BME280;17813;0.000;0.000;2024-01-15T08:13:37;75926.03;;;-142.58;66.97
31183;BME280;17813;0.000;0.000;2024-01-15T08:16:17;75907.72;;;-142.58;66.69
31183;BME280;17813;0.000;0.000;2024-01-15T08:18:49;75893.47;;;-142.58;66.81
31183;BME280;17813;0.000;0.000;2024-01-15T08:21:30;75930.09;;;-142.58;65.50
31183;BME280;17813;0.000;0.000;2024-01-15T08:24:00;75928.06;;;-142.58;65.39
31183;BME280;17813;0.000;0.000;2024-01-15T08:34:05;75889.41;;;-142.58;65.45
31183;BME280;17813;0.000;0.000;2024-01-15T08:36:37;75889.41;;;-142.58;65.86
31183;BME280;17813;0.000;0.000;2024-01-15T08:39:26;75891.44;;;-142.58;65.18
31183;BME280;17813;0.000;0.000;2024-01-15T08:42:12;75899.56;;;-142.58;64.80
31183;BME280;17813;0.000;0.000;2024-01-15T08:44:46;75891.44;;;-142.58;65.77
31183;BME280;17813;0.000;0.000;2024-01-15T08:47:31;75891.44;;;-142.58;65.60
31183;BME280;17813;0.000;0.000;2024-01-15T08:50:17;75877.22;;;-142.58;65.15
31183;BME280;17813;0.000;0.000;2024-01-15T08:53:08;75858.91;;;-142.58;65.52
31183;BME280;17813;0.000;0.000;2024-01-15T08:55:39;75854.84;;;-142.58;64.40
31183;BME280;17813;0.000;0.000;2024-01-15T08:58:15;75846.69;;;-142.58;64.39
31183;BME280;17813;0.000;0.000;2024-01-15T09:00:51;75858.91;;;-142.58;64.96
31183;BME280;17813;0.000;0.000;2024-01-15T09:03:30;75844.66;;;-142.58;63.85
31183;BME280;17813;0.000;0.000;2024-01-15T09:05:58;75836.53;;;-142.58;63.88
31183;BME280;17813;0.000;0.000;2024-01-15T09:08:28;75830.44;;;-142.58;65.02
31183;BME280;17813;0.000;0.000;2024-01-15T09:11:01;75828.38;;;-142.58;63.51
31183;BME280;17813;0.000;0.000;2024-01-15T09:13:31;75808.06;;;-142.58;64.75
31183;BME280;17813;0.000;0.000;2024-01-15T09:15:59;75808.06;;;-142.58;64.09
31183;BME280;17813;0.000;0.000;2024-01-15T09:18:28;75844.66;;;-142.58;64.21
31183;BME280;17813;0.000;0.000;2024-01-15T09:20:55;75838.56;;;-142.58;63.56
31183;BME280;17813;0.000;0.000;2024-01-15T09:23:23;75842.63;;;-142.58;62.67
31183;BME280;17813;0.000;0.000;2024-01-15T09:25:52;75818.22;;;-142.58;63.27
31183;BME280;17813;0.000;0.000;2024-01-15T09:28:20;75694.16;;;-143.88;60.50
31183;BME280;17813;0.000;0.000;2024-01-15T09:30:51;97633.44;;;4.37;56.64
31183;BME280;17813;0.000;0.000;2024-01-15T09:33:19;75433.81;;;-143.88;56.64
31183;BME280;17813;0.000;0.000;2024-01-15T09:36:07;97637.22;;;4.06;56.87
31183;BME280;17813;0.000;0.000;2024-01-15T09:39:11;75476.53;;;-142.58;56.87
31183;BME280;17813;0.000;0.000;2024-01-15T09:41:40;75561.94;;;-142.58;57.00
31183;BME280;17813;0.000;0.000;2024-01-15T09:44:16;75612.78;;;-142.58;57.74
31183;BME280;17813;0.000;0.000;2024-01-15T09:46:52;75635.16;;;-142.58;57.84
31183;BME280;17813;0.000;0.000;2024-01-15T09:49:23;75641.25;;;-142.58;58.39
31183;BME280;17813;0.000;0.000;2024-01-15T09:51:51;75647.38;;;-142.58;58.29
31183;BME280;17813;0.000;0.000;2024-01-15T09:54:20;75616.88;;;-142.58;58.68
31183;BME280;17813;0.000;0.000;2024-01-15T09:56:48;75608.72;;;-142.58;58.46
31183;BME280;17813;0.000;0.000;2024-01-15T09:59:34;75596.53;;;-142.58;58.47
31183;BME280;17813;0.000;0.000;2024-01-15T10:06:26;97623.03;;;4.35;53.73
31183;BME280;17813;0.000;0.000;2024-01-15T10:09:15;97608.63;;;5.18;53.36
31183;BME280;17813;0.000;0.000;2024-01-15T10:11:46;97600.22;;;6.47;51.34
31183;BME280;17813;0.000;0.000;2024-01-15T10:14:37;97584.03;;;8.19;46.51
31183;BME280;17813;0.000;0.000;2024-01-15T10:17:14;97582.19;;;8.63;43.27
31183;BME280;17813;0.000;0.000;2024-01-15T10:20:03;97591.06;;;8.62;44.53
31183;BME280;17813;0.000;0.000;2024-01-15T10:22:35;97576.06;;;8.62;43.77
31183;BME280;17813;0.000;0.000;2024-01-15T10:25:05;97567.16;;;9.45;43.08
31183;BME280;17813;0.000;0.000;2024-01-15T10:27:37;97570.41;;;9.58;41.74
31183;BME280;17813;0.000;0.000;2024-01-15T10:30:29;97580.88;;;9.29;42.87
31183;BME280;17813;0.000;0.000;2024-01-15T10:33:09;97564.31;;;9.67;40.81
31183;BME280;17813;0.000;0.000;2024-01-15T10:35:37;97556.75;;;10.32;41.13
31183;BME280;17813;0.000;0.000;2024-01-15T10:38:07;97567.19;;;10.82;39.32
31183;BME280;17813;0.000;0.000;2024-01-15T10:40:34;97554.72;;;11.66;39.71
31183;BME280;17813;0.000;0.000;2024-01-15T10:43:19;97560.53;;;12.42;38.51
31183;BME280;17813;0.000;0.000;2024-01-15T10:45:59;97562.09;;;12.71;36.76
31183;BME280;17813;0.000;0.000;2024-01-15T10:48:27;97553.72;;;12.83;36.74
31183;BME280;17813;0.000;0.000;2024-01-15T10:51:15;97528.31;;;12.63;36.92
31183;BME280;17813;0.000;0.000;2024-01-15T10:53:46;97534.53;;;12.54;36.61
31183;BME280;17813;0.000;0.000;2024-01-15T10:56:37;97533.63;;;12.63;35.58
31183;BME280;17813;0.000;0.000;2024-01-15T10:59:07;97531.13;;;12.44;36.03
31183;BME280;17813;0.000;0.000;2024-01-15T11:01:38;97530.50;;;12.94;35.97
31183;BME280;17813;0.000;0.000;2024-01-15T11:04:06;97532.25;;;13.29;35.61
31183;BME280;17813;0.000;0.000;2024-01-15T11:06:55;97528.66;;;13.38;35.30
31183;BME280;17813;0.000;0.000;2024-01-15T11:09:40;97538.72;;;13.60;34.59
31183;BME280;17813;0.000;0.000;2024-01-15T11:12:15;97530.94;;;13.67;33.84
31183;BME280;17813;0.000;0.000;2024-01-15T11:15:05;97521.19;;;14.00;34.22
31183;BME280;17813;0.000;0.000;2024-01-15T11:18:00;97522.66;;;13.86;33.63
31183;BME280;17813;0.000;0.000;2024-01-15T11:23:48;97532.38;;;14.03;33.70
31183;BME280;17813;0.000;0.000;2024-01-15T11:40:40;97530.72;;;11.03;36.35
31183;BME280;17813;0.000;0.000;2024-01-15T11:43:11;97529.69;;;11.14;36.27
31183;BME280;17813;0.000;0.000;2024-01-15T11:45:53;97530.41;;;10.30;36.60
31183;BME280;17813;0.000;0.000;2024-01-15T11:48:21;97554.97;;;9.63;37.72
31183;BME280;17813;0.000;0.000;2024-01-15T11:50:51;97561.00;;;9.05;39.16
31183;BME280;17813;0.000;0.000;2024-01-15T11:53:48;97561.09;;;7.77;40.75
31183;BME280;17813;0.000;0.000;2024-01-15T11:56:23;97556.13;;;7.06;42.53
31183;BME280;17813;0.000;0.000;2024-01-15T11:58:50;97575.00;;;6.21;43.98
31183;BME280;17813;0.000;0.000;2024-01-15T12:01:29;97559.38;;;5.82;45.00
31183;BME280;17813;0.000;0.000;2024-01-15T12:04:14;97561.63;;;5.39;45.95
31183;BME280;17813;0.000;0.000;2024-01-15T12:06:46;97564.81;;;5.06;47.13
31183;BME280;17813;0.000;0.000;2024-01-15T12:09:14;97553.16;;;4.85;47.83
31183;BME280;17813;0.000;0.000;2024-01-15T12:12:40;97550.63;;;4.96;47.83
31183;BME280;17813;0.000;0.000;2024-01-15T12:15:22;97548.00;;;4.96;48.62
31183;BME280;17813;0.000;0.000;2024-01-15T12:17:57;97546.22;;;4.97;48.39
31183;BME280;17813;0.000;0.000;2024-01-15T12:20:43;97548.00;;;4.71;48.32
31183;BME280;17813;0.000;0.000;2024-01-15T12:23:20;97546.13;;;4.85;48.20
31183;BME280;17813;0.000;0.000;2024-01-15T12:25:48;97538.03;;;4.89;48.53
31183;BME280;17813;0.000;0.000;2024-01-15T12:28:17;97526.34;;;5.05;48.21
31183;BME280;17813;0.000;0.000;2024-01-15T12:30:47;97532.63;;;5.15;48.35
31183;BME280;17813;0.000;0.000;2024-01-15T12:33:27;97521.28;;;5.28;48.08
31183;BME280;17813;0.000;0.000;2024-01-15T12:35:55;97520.16;;;4.94;48.45
31183;BME280;17813;0.000;0.000;2024-01-15T12:38:40;97521.94;;;5.06;48.92
31183;BME280;17813;0.000;0.000;2024-01-15T12:41:11;97517.69;;;5.29;48.32
31183;BME280;17813;0.000;0.000;2024-01-15T12:43:59;97522.34;;;5.25;47.88
31183;BME280;17813;0.000;0.000;2024-01-15T12:46:49;97533.63;;;5.51;48.23
31183;BME280;17813;0.000;0.000;2024-01-15T12:49:18;97547.34;;;5.67;47.52
31183;BME280;17813;0.000;0.000;2024-01-15T12:51:59;97535.13;;;5.66;47.72
31183;BME280;17813;0.000;0.000;2024-01-15T12:54:28;97537.81;;;5.77;47.84
31183;BME280;17813;0.000;0.000;2024-01-15T12:57:08;97532.00;;;5.61;47.85
31183;BME280;17813;0.000;0.000;2024-01-15T12:59:55;97537.78;;;5.30;48.25
31183;BME280;17813;0.000;0.000;2024-01-15T13:02:29;97545.88;;;5.27;48.68
31183;BME280;17813;0.000;0.000;2024-01-15T13:05:11;97538.44;;;4.95;49.37
31183;BME280;17813;0.000;0.000;2024-01-15T13:07:45;97542.22;;;4.91;49.66
31183;BME280;17813;0.000;0.000;2024-01-15T13:10:12;97532.56;;;4.92;49.46
31183;BME280;17813;0.000;0.000;2024-01-15T13:12:44;97547.59;;;4.51;50.10
31183;BME280;17813;0.000;0.000;2024-01-15T13:15:16;97539.72;;;4.51;50.52
31183;BME280;17813;0.000;0.000;2024-01-15T13:17:46;97545.38;;;4.45;51.07
31183;BME280;17813;0.000;0.000;2024-01-15T13:20:19;97544.00;;;4.27;51.21
31183;BME280;17813;0.000;0.000;2024-01-15T13:23:09;97541.38;;;4.40;51.34
31183;BME280;17813;0.000;0.000;2024-01-15T13:25:43;97548.84;;;4.33;52.23
31183;BME280;17813;0.000;0.000;2024-01-15T13:28:11;97554.78;;;4.10;53.55
31183;BME280;17813;0.000;0.000;2024-01-15T13:30:54;75405.47;;;-143.88;53.55
31183;BME280;17813;0.000;0.000;2024-01-15T13:33:22;75450.09;;;-143.88;55.16
31183;BME280;17813;0.000;0.000;2024-01-15T13:35:56;75446.03;;;-143.88;55.25
31183;BME280;17813;0.000;0.000;2024-01-15T13:38:25;75429.75;;;-143.88;54.42
31183;BME280;17813;0.000;0.000;2024-01-15T13:41:12;97549.97;;;4.29;54.36
31183;BME280;17813;0.000;0.000;2024-01-15T13:43:50;97549.78;;;4.32;54.10
31183;BME280;17813;0.000;0.000;2024-01-15T13:46:38;97553.97;;;4.22;54.50
31183;BME280;17813;0.000;0.000;2024-01-15T13:49:23;75391.09;;;-142.58;54.50
31183;BME280;17813;0.000;0.000;2024-01-15T13:52:09;75421.63;;;-142.58;54.82
31183;BME280;17813;0.000;0.000;2024-01-15T13:54:36;75468.41;;;-142.58;56.03
31183;BME280;17813;0.000;0.000;2024-01-15T13:57:04;75511.09;;;-143.88;100.00
31183;BME280;17813;0.000;0.000;2024-01-15T13:59:49;75543.63;;;-142.58;56.50
31183;BME280;17813;0.000;0.000;2024-01-15T14:02:34;75547.72;;;-142.58;56.71